Time;durP1;ratioP1;P1;durP2;ratioP2;P2;SDS_P1;SDS_P2;PMS_P1;PMS_P2;Temp;Humidity;BMP_temperature;BMP_pressure;BME280_temperature;BME280_humidity;BME280_pressure;Samples;Min_cycle;Max_cycle;Signal;HPM_P1;HPM_P2
2022/03/02 00:00:07;;;;;;;23.37;17.37;;;;;;;;;;7386580;19;20476;-75
2022/03/02 00:02:33;;;;;;;20.20;17.10;;;;;;;;;;7385911;19;20129;-75
2022/03/02 00:04:59;;;;;;;21.10;16.83;;;;;;;;;;7389097;19;20465;-75
2022/03/02 00:07:25;;;;;;;21.93;17.13;;;;;;;;;;7388682;19;20131;-73
2022/03/02 00:09:51;;;;;;;21.20;16.60;;;;;;;;;;7384146;19;20644;-74
2022/03/02 00:12:17;;;;;;;20.90;15.80;;;;;;;;;;7385350;19;20443;-75
2022/03/02 00:14:44;;;;;;;22.10;17.37;;;;;;;;;;7388438;19;20148;-75
2022/03/02 00:17:10;;;;;;;22.43;16.20;;;;;;;;;;7392579;19;20137;-75
2022/03/02 00:19:37;;;;;;;19.37;16.20;;;;;;;;;;7390481;19;20163;-75
2022/03/02 00:22:04;;;;;;;20.17;16.57;;;;;;;;;;7392712;19;20144;-74
2022/03/02 00:24:29;;;;;;;21.23;17.10;;;;;;;;;;7392807;19;20158;-74
2022/03/02 00:26:56;;;;;;;19.50;16.37;;;;;;;;;;7393514;19;20645;-74
2022/03/02 00:29:22;;;;;;;20.63;16.53;;;;;;;;;;7391934;19;20164;-75
2022/03/02 00:31:48;;;;;;;21.87;17.10;;;;;;;;;;7393628;19;20521;-75
2022/03/02 00:34:14;;;;;;;22.30;16.73;;;;;;;;;;7395566;19;20134;-75
2022/03/02 00:36:40;;;;;;;20.80;16.73;;;;;;;;;;7393745;19;20229;-75
2022/03/02 00:39:06;;;;;;;22.37;17.40;;;;;;;;;;7392539;19;20603;-75
2022/03/02 00:41:32;;;;;;;22.40;16.90;;;;;;;;;;7394216;19;20142;-75
2022/03/02 00:43:58;;;;;;;21.07;17.20;;;;;;;;;;7395029;19;20121;-75
2022/03/02 00:46:29;;;;;;;21.13;17.17;;;;;;;;;;7394097;19;20140;-75
2022/03/02 00:49:04;;;;;;;20.00;16.43;;;;;;;;;;7395563;19;20140;-76
2022/03/02 00:51:30;;;;;;;21.57;17.27;;;;;;;;;;7397414;19;20124;-75
2022/03/02 00:53:58;;;;;;;19.63;16.13;;;;;;;;;;7400491;19;20138;-74
2022/03/02 00:56:24;;;;;;;21.33;17.27;;;;;;;;;;7395578;19;20149;-75
2022/03/02 00:58:50;;;;;;;21.00;16.30;;;;;;;;;;7392213;19;20153;-74
2022/03/02 01:01:16;;;;;;;20.27;16.27;;;;;;;;;;7394481;19;20125;-75
2022/03/02 01:03:42;;;;;;;21.33;17.10;;;;;;;;;;7397235;19;20125;-74
2022/03/02 01:06:10;;;;;;;22.77;17.13;;;;;;;;;;7397631;19;20125;-75
2022/03/02 01:08:36;;;;;;;20.80;16.90;;;;;;;;;;7395644;19;20644;-75
2022/03/02 01:11:02;;;;;;;19.97;16.23;;;;;;;;;;7391570;19;20137;-75
2022/03/02 01:13:28;;;;;;;21.33;17.50;;;;;;;;;;7389540;19;20145;-74
2022/03/02 01:15:54;;;;;;;20.17;16.60;;;;;;;;;;7392294;19;20137;-74
2022/03/02 01:18:20;;;;;;;21.77;16.83;;;;;;;;;;7391526;19;20236;-75
2022/03/02 01:20:46;;;;;;;21.70;16.23;;;;;;;;;;7390704;19;20141;-75
2022/03/02 01:23:12;;;;;;;20.10;17.07;;;;;;;;;;7393393;19;20125;-75
2022/03/02 01:25:38;;;;;;;20.80;16.90;;;;;;;;;;7390093;19;20576;-75
2022/03/02 01:28:04;;;;;;;22.40;16.97;;;;;;;;;;7390585;19;20132;-74
2022/03/02 01:30:31;;;;;;;21.23;17.57;;;;;;;;;;7392638;19;20113;-75
2022/03/02 01:32:57;;;;;;;21.53;16.83;;;;;;;;;;7392537;19;20129;-75
2022/03/02 01:35:23;;;;;;;20.50;16.70;;;;;;;;;;7393114;19;20485;-75
2022/03/02 01:37:50;;;;;;;21.27;16.83;;;;;;;;;;7393240;19;20455;-75
2022/03/02 01:40:16;;;;;;;21.60;17.40;;;;;;;;;;7388541;19;20160;-75
2022/03/02 01:42:43;;;;;;;21.60;17.27;;;;;;;;;;7392412;19;20227;-75
2022/03/02 01:45:11;;;;;;;21.80;17.13;;;;;;;;;;7390363;19;20141;-75
2022/03/02 01:47:37;;;;;;;20.27;16.63;;;;;;;;;;7392193;19;20125;-75
2022/03/02 01:50:05;;;;;;;19.67;15.93;;;;;;;;;;7391538;19;20152;-75
2022/03/02 01:52:31;;;;;;;22.43;17.60;;;;;;;;;;7391654;19;20515;-75
2022/03/02 01:54:57;;;;;;;21.00;17.10;;;;;;;;;;7410518;19;20146;-75
2022/03/02 01:57:23;;;;;;;20.37;16.17;;;;;;;;;;7408598;19;20157;-74
2022/03/02 01:59:49;;;;;;;20.27;17.17;;;;;;;;;;7415302;19;20140;-75
2022/03/02 02:02:15;;;;;;;20.67;17.23;;;;;;;;;;7411259;19;20129;-74
2022/03/02 02:04:41;;;;;;;20.53;17.10;;;;;;;;;;7392203;19;20667;-75
2022/03/02 02:07:07;;;;;;;21.00;16.73;;;;;;;;;;7389816;19;20152;-75
2022/03/02 02:09:33;;;;;;;21.67;17.03;;;;;;;;;;7412256;19;20126;-75
2022/03/02 02:11:59;;;;;;;21.30;17.00;;;;;;;;;;7426071;19;20125;-75
2022/03/02 02:14:26;;;;;;;21.43;16.37;;;;;;;;;;7425976;19;20121;-75
2022/03/02 02:16:52;;;;;;;23.10;18.00;;;;;;;;;;7425463;19;20129;-75
2022/03/02 02:19:18;;;;;;;21.27;17.07;;;;;;;;;;7419926;19;20140;-75
2022/03/02 02:21:48;;;;;;;21.23;17.53;;;;;;;;;;7391327;19;20145;-75
2022/03/02 02:24:14;;;;;;;21.90;17.87;;;;;;;;;;7398335;19;20120;-74
2022/03/02 02:26:40;;;;;;;20.37;17.03;;;;;;;;;;7419984;19;20133;-74
2022/03/02 02:29:07;;;;;;;21.57;17.20;;;;;;;;;;7408334;19;20324;-74
2022/03/02 02:31:33;;;;;;;22.27;17.93;;;;;;;;;;7392786;19;20184;-75
2022/03/02 02:33:59;;;;;;;22.60;17.10;;;;;;;;;;7390849;19;20121;-74
2022/03/02 02:36:25;;;;;;;23.63;19.20;;;;;;;;;;7390461;19;20121;-75
2022/03/02 02:38:51;;;;;;;22.17;17.60;;;;;;;;;;7387740;19;20209;-75
2022/03/02 02:41:18;;;;;;;18.57;16.37;;;;;;;;;;7390636;19;20698;-74
2022/03/02 02:43:45;;;;;;;21.60;17.50;;;;;;;;;;7390850;19;20644;-75
2022/03/02 02:46:12;;;;;;;21.17;17.90;;;;;;;;;;7389376;19;20132;-74
2022/03/02 02:48:38;;;;;;;22.23;17.40;;;;;;;;;;7390251;19;20128;-75
2022/03/02 02:51:04;;;;;;;21.27;17.77;;;;;;;;;;7388079;19;20478;-75
2022/03/02 02:53:31;;;;;;;20.87;17.77;;;;;;;;;;7388738;19;20735;-75
2022/03/02 02:55:57;;;;;;;19.63;17.03;;;;;;;;;;7390767;19;20121;-74
2022/03/02 02:58:23;;;;;;;22.53;17.97;;;;;;;;;;7388469;19;20173;-75
2022/03/02 03:00:52;;;;;;;22.80;17.07;;;;;;;;;;7388914;19;20140;-75
2022/03/02 03:03:19;;;;;;;20.87;17.17;;;;;;;;;;7390199;19;20452;-74
2022/03/02 03:05:45;;;;;;;20.97;16.67;;;;;;;;;;7386793;19;20133;-75
2022/03/02 03:08:12;;;;;;;23.77;17.40;;;;;;;;;;7387355;19;20132;-74
2022/03/02 03:10:39;;;;;;;23.50;18.60;;;;;;;;;;7387996;19;20492;-74
2022/03/02 03:13:05;;;;;;;21.47;17.30;;;;;;;;;;7389755;19;20124;-75
2022/03/02 03:15:32;;;;;;;22.70;18.00;;;;;;;;;;7390577;19;20643;-74
2022/03/02 03:17:58;;;;;;;22.43;17.70;;;;;;;;;;7388104;19;20507;-75
2022/03/02 03:20:25;;;;;;;20.80;17.57;;;;;;;;;;7389337;19;20125;-75
2022/03/02 03:22:52;;;;;;;18.87;16.37;;;;;;;;;;7389464;19;20113;-75
2022/03/02 03:25:19;;;;;;;20.40;17.07;;;;;;;;;;7387036;19;20141;-75
2022/03/02 03:27:45;;;;;;;21.97;17.90;;;;;;;;;;7389673;19;20185;-75
2022/03/02 03:30:12;;;;;;;22.73;18.13;;;;;;;;;;7388048;19;20133;-75
2022/03/02 03:32:38;;;;;;;24.40;18.63;;;;;;;;;;7387832;19;20152;-75
2022/03/02 03:35:04;;;;;;;22.00;18.57;;;;;;;;;;7390192;19;20128;-75
2022/03/02 03:37:30;;;;;;;23.70;17.90;;;;;;;;;;7389065;19;20131;-75
2022/03/02 03:39:56;;;;;;;20.60;17.10;;;;;;;;;;7385101;19;20164;-75
2022/03/02 03:42:23;;;;;;;24.10;18.17;;;;;;;;;;7385553;19;20141;-74
2022/03/02 03:44:49;;;;;;;23.57;18.00;;;;;;;;;;7382395;19;20161;-74
2022/03/02 03:47:15;;;;;;;25.27;19.07;;;;;;;;;;7386161;19;20171;-75
2022/03/02 03:49:41;;;;;;;22.10;18.13;;;;;;;;;;7386056;19;20147;-75
2022/03/02 03:52:08;;;;;;;21.47;18.37;;;;;;;;;;7388435;19;20128;-75
2022/03/02 03:54:34;;;;;;;23.90;18.73;;;;;;;;;;7389216;19;20690;-75
2022/03/02 03:57:00;;;;;;;25.13;19.87;;;;;;;;;;7390137;19;20433;-75
2022/03/02 03:59:26;;;;;;;25.37;18.63;;;;;;;;;;7387969;19;20125;-74
2022/03/02 04:01:52;;;;;;;21.20;18.80;;;;;;;;;;7385973;19;20128;-75
2022/03/02 04:04:19;;;;;;;21.77;17.70;;;;;;;;;;7390476;19;20116;-75
2022/03/02 04:06:46;;;;;;;23.73;18.50;;;;;;;;;;7402902;19;20125;-75
2022/03/02 04:09:12;;;;;;;24.53;18.77;;;;;;;;;;7399134;19;20128;-75
2022/03/02 04:11:38;;;;;;;22.97;18.13;;;;;;;;;;7403494;19;20132;-75
2022/03/02 04:14:05;;;;;;;24.03;18.67;;;;;;;;;;7401836;19;20591;-75
2022/03/02 04:16:30;;;;;;;22.90;18.30;;;;;;;;;;7387225;19;20165;-75
2022/03/02 04:18:57;;;;;;;22.90;18.87;;;;;;;;;;7387909;19;20150;-75
2022/03/02 04:21:23;;;;;;;25.23;19.17;;;;;;;;;;7387248;19;20138;-75
2022/03/02 04:23:49;;;;;;;23.83;18.43;;;;;;;;;;7386235;19;20204;-74
2022/03/02 04:26:15;;;;;;;24.93;19.27;;;;;;;;;;7386269;19;20152;-75
2022/03/02 04:28:41;;;;;;;23.53;19.10;;;;;;;;;;7385080;19;20164;-75
2022/03/02 04:31:07;;;;;;;24.93;19.50;;;;;;;;;;7385895;19;20143;-75
2022/03/02 04:33:33;;;;;;;25.30;18.50;;;;;;;;;;7386113;19;20151;-75
2022/03/02 04:35:59;;;;;;;22.53;17.50;;;;;;;;;;7387615;19;20117;-75
2022/03/02 04:38:25;;;;;;;23.97;18.27;;;;;;;;;;7387642;19;20146;-75
2022/03/02 04:40:51;;;;;;;23.77;19.33;;;;;;;;;;7385438;19;20153;-75
2022/03/02 04:43:17;;;;;;;22.90;19.60;;;;;;;;;;7387039;19;20166;-75
2022/03/02 04:45:43;;;;;;;21.73;17.77;;;;;;;;;;7389613;19;20137;-75
2022/03/02 04:48:09;;;;;;;23.17;18.97;;;;;;;;;;7393733;19;20136;-76
2022/03/02 04:50:36;;;;;;;23.83;19.60;;;;;;;;;;7393029;19;20250;-75
2022/03/02 04:53:02;;;;;;;24.57;19.57;;;;;;;;;;7388426;19;20139;-75
2022/03/02 04:55:28;;;;;;;25.30;19.60;;;;;;;;;;7386184;19;20122;-75
2022/03/02 04:57:55;;;;;;;22.27;18.27;;;;;;;;;;7388102;19;20125;-75
2022/03/02 05:00:29;;;;;;;24.50;19.03;;;;;;;;;;7387399;19;20596;-75
2022/03/02 05:02:55;;;;;;;21.27;17.90;;;;;;;;;;7391178;19;20193;-75
2022/03/02 05:05:22;;;;;;;25.27;19.73;;;;;;;;;;7390960;19;20125;-75
2022/03/02 05:07:48;;;;;;;24.43;19.40;;;;;;;;;;7391869;19;20471;-75
2022/03/02 05:10:16;;;;;;;22.20;18.60;;;;;;;;;;7389585;19;20133;-75
2022/03/02 05:12:42;;;;;;;24.33;19.13;;;;;;;;;;7393522;19;20116;-75
2022/03/02 05:15:08;;;;;;;24.27;18.43;;;;;;;;;;7396917;19;20196;-75
2022/03/02 05:17:35;;;;;;;22.57;18.40;;;;;;;;;;7415998;19;20133;-75
2022/03/02 05:20:01;;;;;;;25.50;19.53;;;;;;;;;;7404871;19;20164;-75
2022/03/02 05:22:27;;;;;;;24.60;19.50;;;;;;;;;;7393238;19;20124;-75
2022/03/02 05:24:53;;;;;;;24.47;19.53;;;;;;;;;;7392136;19;20188;-75
2022/03/02 05:27:19;;;;;;;25.87;19.47;;;;;;;;;;7393413;19;20125;-74
2022/03/02 05:29:45;;;;;;;23.07;18.37;;;;;;;;;;7392005;19;20148;-75
2022/03/02 05:32:11;;;;;;;23.60;18.70;;;;;;;;;;7394144;19;20116;-75
2022/03/02 05:34:37;;;;;;;24.23;18.80;;;;;;;;;;7391248;19;20133;-75
2022/03/02 05:37:04;;;;;;;22.57;19.23;;;;;;;;;;7394188;19;20123;-75
2022/03/02 05:39:31;;;;;;;21.40;18.90;;;;;;;;;;7391496;19;20460;-75
2022/03/02 05:41:57;;;;;;;26.77;20.10;;;;;;;;;;7390621;19;20132;-75
2022/03/02 05:44:23;;;;;;;23.37;20.03;;;;;;;;;;7393100;19;20146;-75
2022/03/02 05:46:49;;;;;;;26.93;18.63;;;;;;;;;;7392466;19;20136;-75
2022/03/02 05:49:16;;;;;;;24.00;19.03;;;;;;;;;;7392316;19;20479;-75
2022/03/02 05:51:42;;;;;;;27.33;20.63;;;;;;;;;;7393372;19;20219;-75
2022/03/02 05:54:08;;;;;;;24.53;18.80;;;;;;;;;;7392279;19;20127;-75
2022/03/02 05:56:37;;;;;;;23.10;18.90;;;;;;;;;;7391202;19;20143;-75
2022/03/02 05:59:03;;;;;;;23.03;19.57;;;;;;;;;;7389956;19;20184;-75
2022/03/02 06:01:29;;;;;;;22.13;18.80;;;;;;;;;;7389843;19;20172;-75
2022/03/02 06:03:55;;;;;;;24.77;19.20;;;;;;;;;;7390647;19;20128;-75
2022/03/02 06:06:21;;;;;;;23.67;19.33;;;;;;;;;;7391420;19;20621;-75
2022/03/02 06:08:47;;;;;;;27.70;19.90;;;;;;;;;;7392832;19;20139;-75
2022/03/02 06:11:14;;;;;;;25.07;19.93;;;;;;;;;;7392562;19;20181;-75
2022/03/02 06:13:40;;;;;;;24.37;19.00;;;;;;;;;;7390158;19;20140;-75
2022/03/02 06:16:06;;;;;;;23.83;18.70;;;;;;;;;;7391701;19;20121;-75
2022/03/02 06:18:32;;;;;;;24.67;19.40;;;;;;;;;;7405903;19;20139;-75
2022/03/02 06:21:01;;;;;;;22.67;19.00;;;;;;;;;;7404599;19;20143;-75
2022/03/02 06:23:31;;;;;;;21.63;18.67;;;;;;;;;;7407765;19;20128;-75
2022/03/02 06:25:57;;;;;;;21.43;18.23;;;;;;;;;;7404123;19;20133;-75
2022/03/02 06:28:24;;;;;;;24.07;19.73;;;;;;;;;;7389699;19;20129;-75
2022/03/02 06:30:50;;;;;;;25.57;19.40;;;;;;;;;;7390312;19;20133;-75
2022/03/02 06:33:21;;;;;;;24.43;18.47;;;;;;;;;;7388982;19;20143;-75
2022/03/02 06:35:47;;;;;;;31.73;19.10;;;;;;;;;;7392133;19;20457;-76
2022/03/02 06:38:13;;;;;;;22.23;18.53;;;;;;;;;;7389509;19;20128;-77
2022/03/02 06:40:40;;;;;;;22.70;17.60;;;;;;;;;;7385337;19;20153;-76
2022/03/02 06:43:12;;;;;;;41.90;20.77;;;;;;;;;;7389902;19;20133;-76
2022/03/02 06:45:38;;;;;;;24.20;18.93;;;;;;;;;;7390027;19;20595;-75
2022/03/02 06:48:14;;;;;;;24.77;18.93;;;;;;;;;;7390866;19;20128;-76
2022/03/02 06:50:42;;;;;;;23.30;18.33;;;;;;;;;;7389750;19;20204;-76
2022/03/02 06:53:12;;;;;;;22.53;18.80;;;;;;;;;;7390975;19;20127;-76
2022/03/02 06:55:39;;;;;;;21.47;18.10;;;;;;;;;;7391677;19;20143;-75
2022/03/02 06:58:08;;;;;;;26.93;18.57;;;;;;;;;;7390699;19;20132;-75
2022/03/02 07:00:34;;;;;;;24.17;19.03;;;;;;;;;;7390636;19;20120;-76
2022/03/02 07:03:05;;;;;;;23.30;19.53;;;;;;;;;;7389113;19;20123;-76
2022/03/02 07:05:31;;;;;;;25.83;19.60;;;;;;;;;;7389838;19;20196;-76
2022/03/02 07:07:59;;;;;;;24.47;20.13;;;;;;;;;;7390322;19;20709;-76
2022/03/02 07:10:25;;;;;;;22.80;19.27;;;;;;;;;;7389055;19;20555;-76
2022/03/02 07:12:51;;;;;;;24.70;18.67;;;;;;;;;;7388636;19;20565;-75
2022/03/02 07:15:17;;;;;;;22.90;18.60;;;;;;;;;;7390104;19;20125;-75
2022/03/02 07:17:43;;;;;;;26.47;18.20;;;;;;;;;;7388716;19;20125;-75
2022/03/02 07:20:10;;;;;;;24.87;18.67;;;;;;;;;;7389609;19;20157;-75
2022/03/02 07:22:38;;;;;;;25.97;18.07;;;;;;;;;;7387731;19;20479;-75
2022/03/02 07:25:19;;;;;;;24.27;17.77;;;;;;;;;;7387695;19;20489;-75
2022/03/02 07:27:45;;;;;;;21.77;17.67;;;;;;;;;;7388765;19;20133;-75
2022/03/02 07:30:12;;;;;;;23.67;18.23;;;;;;;;;;7388264;19;20667;-75
2022/03/02 07:32:41;;;;;;;27.40;18.70;;;;;;;;;;7389709;19;20129;-75
2022/03/02 07:35:08;;;;;;;22.50;17.97;;;;;;;;;;7390271;19;20129;-77
2022/03/02 07:37:34;;;;;;;25.83;17.77;;;;;;;;;;7390376;19;20121;-75
2022/03/02 07:40:00;;;;;;;25.80;20.80;;;;;;;;;;7388607;19;20475;-75
2022/03/02 07:42:26;;;;;;;28.23;20.80;;;;;;;;;;7375977;19;20113;-76
2022/03/02 07:44:54;;;;;;;27.60;21.57;;;;;;;;;;7373005;19;20574;-75
2022/03/02 07:47:20;;;;;;;26.10;19.90;;;;;;;;;;7387932;19;20125;-75
2022/03/02 07:49:46;;;;;;;27.10;20.40;;;;;;;;;;7381987;19;20198;-74
2022/03/02 07:52:15;;;;;;;26.53;20.47;;;;;;;;;;7382711;19;20137;-74
2022/03/02 07:54:41;;;;;;;25.77;19.83;;;;;;;;;;7380797;19;20133;-74
2022/03/02 07:57:09;;;;;;;26.90;19.97;;;;;;;;;;7386468;19;20160;-75
2022/03/02 07:59:36;;;;;;;26.60;20.23;;;;;;;;;;7387843;19;20251;-74
2022/03/02 08:02:04;;;;;;;25.67;19.67;;;;;;;;;;7385434;19;20137;-75
2022/03/02 08:04:31;;;;;;;24.70;20.23;;;;;;;;;;7387543;19;20125;-75
2022/03/02 08:06:57;;;;;;;27.53;19.40;;;;;;;;;;7411084;19;20149;-75
2022/03/02 08:09:23;;;;;;;27.30;20.43;;;;;;;;;;7405546;19;20136;-75
2022/03/02 08:11:49;;;;;;;25.57;19.90;;;;;;;;;;7387828;19;20611;-75
2022/03/02 08:14:18;;;;;;;26.73;20.33;;;;;;;;;;7397655;19;20144;-75
2022/03/02 08:16:45;;;;;;;27.77;20.83;;;;;;;;;;7419076;19;20121;-75
2022/03/02 08:19:11;;;;;;;29.70;19.23;;;;;;;;;;7397895;19;20165;-75
2022/03/02 08:21:41;;;;;;;24.40;19.47;;;;;;;;;;7412673;19;20149;-75
2022/03/02 08:24:08;;;;;;;29.97;20.10;;;;;;;;;;7422603;19;20161;-75
2022/03/02 08:26:37;;;;;;;26.17;20.20;;;;;;;;;;7423631;19;20149;-74
2022/03/02 08:29:07;;;;;;;24.00;19.13;;;;;;;;;;7422400;19;20114;-74
2022/03/02 08:31:36;;;;;;;29.40;19.57;;;;;;;;;;7396618;19;20142;-74
2022/03/02 08:34:03;;;;;;;25.67;19.20;;;;;;;;;;7384404;19;20135;-74
2022/03/02 08:36:33;;;;;;;25.67;17.80;;;;;;;;;;7383235;19;20135;-75
2022/03/02 08:39:00;;;;;;;32.07;18.80;;;;;;;;;;7397659;19;20130;-74
2022/03/02 08:41:26;;;;;;;25.13;19.93;;;;;;;;;;7397023;19;20235;-75
2022/03/02 08:43:52;;;;;;;25.83;18.60;;;;;;;;;;7398008;19;20130;-76
2022/03/02 08:46:18;;;;;;;27.03;17.63;;;;;;;;;;7395614;19;20131;-75
2022/03/02 08:48:44;;;;;;;24.23;18.37;;;;;;;;;;7395332;19;20191;-75
2022/03/02 08:51:10;;;;;;;25.37;18.77;;;;;;;;;;7391298;19;20143;-76
2022/03/02 08:53:38;;;;;;;25.97;18.37;;;;;;;;;;7393367;19;20220;-75
2022/03/02 08:56:06;;;;;;;24.73;17.57;;;;;;;;;;7392897;19;20179;-75
2022/03/02 08:58:32;;;;;;;27.17;18.87;;;;;;;;;;7392907;19;20539;-74
2022/03/02 09:00:59;;;;;;;25.57;17.97;;;;;;;;;;7394313;19;20832;-75
2022/03/02 09:03:26;;;;;;;26.77;17.83;;;;;;;;;;7393865;19;20140;-75
2022/03/02 09:05:52;;;;;;;27.83;18.20;;;;;;;;;;7397486;19;20591;-74
2022/03/02 09:08:18;;;;;;;22.53;17.07;;;;;;;;;;7408718;19;20182;-75
2022/03/02 09:10:44;;;;;;;25.50;18.43;;;;;;;;;;7410738;19;20125;-74
2022/03/02 09:13:10;;;;;;;23.83;17.23;;;;;;;;;;7406361;19;20181;-75
2022/03/02 09:15:40;;;;;;;27.20;16.93;;;;;;;;;;7390411;19;20124;-75
2022/03/02 09:18:06;;;;;;;25.97;16.93;;;;;;;;;;7390264;19;20140;-75
2022/03/02 09:20:33;;;;;;;27.40;17.80;;;;;;;;;;7388341;19;20145;-75
2022/03/02 09:23:01;;;;;;;31.60;16.67;;;;;;;;;;7386684;19;20129;-75
2022/03/02 09:25:29;;;;;;;26.13;14.70;;;;;;;;;;7390310;19;20136;-76
2022/03/02 09:27:57;;;;;;;24.50;14.77;;;;;;;;;;7389030;19;20124;-76
2022/03/02 09:30:23;;;;;;;20.77;14.00;;;;;;;;;;7385263;19;20129;-75
2022/03/02 09:32:52;;;;;;;23.10;13.93;;;;;;;;;;7385234;19;20141;-75
2022/03/02 09:35:20;;;;;;;20.33;14.13;;;;;;;;;;7389116;19;20126;-76
2022/03/02 09:37:49;;;;;;;21.30;13.67;;;;;;;;;;7386109;19;20534;-75
2022/03/02 09:40:28;;;;;;;22.43;14.03;;;;;;;;;;7385111;19;20970;-75
2022/03/02 09:42:54;;;;;;;21.83;13.50;;;;;;;;;;7389527;19;20153;-75
2022/03/02 09:45:21;;;;;;;20.43;12.53;;;;;;;;;;7385901;19;20193;-75
2022/03/02 09:47:52;;;;;;;19.60;13.63;;;;;;;;;;7388709;19;20647;-75
2022/03/02 09:50:18;;;;;;;21.90;13.67;;;;;;;;;;7381862;19;20597;-75
2022/03/02 09:52:45;;;;;;;20.73;14.53;;;;;;;;;;7379232;19;20149;-75
2022/03/02 09:55:13;;;;;;;19.10;14.13;;;;;;;;;;7383993;19;20133;-75
2022/03/02 09:57:59;;;;;;;22.03;14.33;;;;;;;;;;7386858;19;20222;-73
2022/03/02 10:00:26;;;;;;;19.63;13.77;;;;;;;;;;7386658;19;20128;-75
2022/03/02 10:02:58;;;;;;;22.20;14.77;;;;;;;;;;7386134;19;20607;-75
2022/03/02 10:05:27;;;;;;;24.43;15.07;;;;;;;;;;7386336;19;20119;-75
2022/03/02 10:08:00;;;;;;;23.63;16.57;;;;;;;;;;7386058;19;20154;-75
2022/03/02 10:10:28;;;;;;;27.40;16.87;;;;;;;;;;7387614;19;20592;-75
2022/03/02 10:12:56;;;;;;;20.37;15.20;;;;;;;;;;7383372;19;20145;-75
2022/03/02 10:15:22;;;;;;;28.60;17.47;;;;;;;;;;7387050;19;20632;-75
2022/03/02 10:17:51;;;;;;;22.43;15.77;;;;;;;;;;7387146;19;20119;-75
2022/03/02 10:20:22;;;;;;;24.63;16.70;;;;;;;;;;7377923;19;20505;-75
2022/03/02 10:23:03;;;;;;;25.70;15.83;;;;;;;;;;7383380;19;20132;-75
2022/03/02 10:25:48;;;;;;;21.30;15.67;;;;;;;;;;7382918;19;20144;-75
2022/03/02 10:28:17;;;;;;;21.67;16.13;;;;;;;;;;7384357;19;20638;-75
2022/03/02 10:30:46;;;;;;;20.53;15.43;;;;;;;;;;7385029;19;21001;-75
2022/03/02 10:33:20;;;;;;;20.77;15.13;;;;;;;;;;7376888;19;20151;-74
2022/03/02 10:35:53;;;;;;;24.90;16.43;;;;;;;;;;7385455;19;20117;-76
2022/03/02 10:38:28;;;;;;;25.70;15.83;;;;;;;;;;7384030;19;20144;-75
2022/03/02 10:40:58;;;;;;;24.30;15.63;;;;;;;;;;7387795;19;20117;-75
2022/03/02 10:43:27;;;;;;;22.87;15.00;;;;;;;;;;7386139;19;20140;-75
2022/03/02 10:45:53;;;;;;;22.70;16.03;;;;;;;;;;7387438;19;20147;-75
2022/03/02 10:48:21;;;;;;;22.10;15.37;;;;;;;;;;7386128;19;20546;-75
2022/03/02 10:50:51;;;;;;;22.40;16.27;;;;;;;;;;7385576;19;20133;-75
2022/03/02 10:53:18;;;;;;;24.93;15.27;;;;;;;;;;7381235;19;20125;-75
2022/03/02 10:55:46;;;;;;;21.73;15.73;;;;;;;;;;7390925;19;20137;-75
2022/03/02 10:58:15;;;;;;;21.33;16.27;;;;;;;;;;7409289;19;20141;-75
2022/03/02 11:00:42;;;;;;;19.63;15.70;;;;;;;;;;7394435;19;20209;-75
2022/03/02 11:03:08;;;;;;;22.50;16.13;;;;;;;;;;7385623;19;20139;-75
2022/03/02 11:05:35;;;;;;;18.90;16.13;;;;;;;;;;7385945;19;20197;-75
2022/03/02 11:08:02;;;;;;;20.10;16.13;;;;;;;;;;7387754;19;20141;-75
2022/03/02 11:10:33;;;;;;;22.50;16.60;;;;;;;;;;7384744;19;20121;-75
2022/03/02 11:13:02;;;;;;;29.93;16.63;;;;;;;;;;7383219;19;20129;-75
2022/03/02 11:15:43;;;;;;;21.57;16.33;;;;;;;;;;7381787;19;20208;-75
2022/03/02 11:18:09;;;;;;;18.90;16.00;;;;;;;;;;7379810;19;20133;-75
2022/03/02 11:20:35;;;;;;;23.77;15.77;;;;;;;;;;7384608;19;20129;-75
2022/03/02 11:23:05;;;;;;;22.83;16.87;;;;;;;;;;7381866;19;20628;-75
2022/03/02 11:25:44;;;;;;;18.77;16.60;;;;;;;;;;7382794;19;20136;-76
2022/03/02 11:28:18;;;;;;;21.17;17.40;;;;;;;;;;7381911;19;20665;-75
2022/03/02 11:30:50;;;;;;;21.83;15.40;;;;;;;;;;7377967;19;20141;-75
2022/03/02 11:33:16;;;;;;;20.50;16.27;;;;;;;;;;7382859;19;20140;-75
2022/03/02 11:35:43;;;;;;;20.50;16.60;;;;;;;;;;7385599;19;20143;-75
2022/03/02 11:38:12;;;;;;;22.33;16.57;;;;;;;;;;7381050;19;20142;-76
2022/03/02 11:40:39;;;;;;;19.50;16.40;;;;;;;;;;7379700;19;20185;-76
2022/03/02 11:43:19;;;;;;;21.20;16.57;;;;;;;;;;7386366;19;20121;-77
2022/03/02 11:45:45;;;;;;;22.03;16.97;;;;;;;;;;7382714;19;20117;-77
2022/03/02 11:48:13;;;;;;;19.30;16.00;;;;;;;;;;7382301;19;20170;-77
2022/03/02 11:50:59;;;;;;;17.83;15.33;;;;;;;;;;7387040;19;20629;-76
2022/03/02 11:53:39;;;;;;;20.10;16.53;;;;;;;;;;7387849;19;20461;-77
2022/03/02 11:56:06;;;;;;;19.27;15.60;;;;;;;;;;7378529;19;20807;-76
2022/03/02 11:58:51;;;;;;;19.83;15.40;;;;;;;;;;7383522;19;20129;-76
2022/03/02 12:01:17;;;;;;;19.30;15.73;;;;;;;;;;7381106;19;20133;-77
2022/03/02 12:03:57;;;;;;;18.73;15.73;;;;;;;;;;7385329;19;20131;-76
2022/03/02 12:06:23;;;;;;;19.57;15.73;;;;;;;;;;7380070;19;20140;-76
2022/03/02 12:08:56;;;;;;;18.03;15.43;;;;;;;;;;7380262;19;20176;-77
2022/03/02 12:11:23;;;;;;;20.87;16.23;;;;;;;;;;7385122;19;20139;-76
2022/03/02 12:14:04;;;;;;;19.50;15.90;;;;;;;;;;7385388;19;20163;-76
2022/03/02 12:16:37;;;;;;;19.53;16.30;;;;;;;;;;7385633;19;20157;-77
2022/03/02 12:19:03;;;;;;;23.70;19.50;;;;;;;;;;7372240;19;20137;-76
2022/03/02 12:21:29;;;;;;;16.23;14.53;;;;;;;;;;7377443;19;20512;-76
2022/03/02 12:23:55;;;;;;;19.47;17.13;;;;;;;;;;7387126;19;20497;-77
2022/03/02 12:26:21;;;;;;;19.23;16.00;;;;;;;;;;7381182;19;20114;-78
2022/03/02 12:28:57;;;;;;;19.63;16.10;;;;;;;;;;7387678;19;20125;-77
2022/03/02 12:31:32;;;;;;;20.60;15.53;;;;;;;;;;7386817;19;20627;-76
2022/03/02 12:33:59;;;;;;;18.60;16.27;;;;;;;;;;7382804;19;20687;-77
2022/03/02 12:36:26;;;;;;;19.37;16.90;;;;;;;;;;7385307;19;20124;-77
2022/03/02 12:38:52;;;;;;;21.40;17.13;;;;;;;;;;7376034;19;20193;-76
2022/03/02 12:41:19;;;;;;;18.53;15.67;;;;;;;;;;7379681;19;20141;-77
2022/03/02 12:43:45;;;;;;;16.77;14.57;;;;;;;;;;7381960;19;20140;-77
2022/03/02 12:46:11;;;;;;;17.27;15.33;;;;;;;;;;7372658;19;20129;-77
2022/03/02 12:48:38;;;;;;;17.13;15.47;;;;;;;;;;7379748;19;20193;-76
2022/03/02 12:51:05;;;;;;;16.70;14.90;;;;;;;;;;7388240;19;20138;-76
2022/03/02 12:53:31;;;;;;;17.20;15.17;;;;;;;;;;7389917;19;20125;-76
2022/03/02 12:55:57;;;;;;;16.90;15.00;;;;;;;;;;7387879;19;20651;-77
2022/03/02 12:58:23;;;;;;;16.10;14.50;;;;;;;;;;7387660;19;20158;-74
2022/03/02 13:00:49;;;;;;;17.20;15.40;;;;;;;;;;7385881;19;20165;-74
2022/03/02 13:03:20;;;;;;;16.83;14.63;;;;;;;;;;7386215;19;20141;-74
2022/03/02 13:05:49;;;;;;;17.67;15.27;;;;;;;;;;7386745;19;20133;-75
2022/03/02 13:08:36;;;;;;;16.17;13.67;;;;;;;;;;7381470;19;20122;-75
2022/03/02 13:11:02;;;;;;;15.93;14.33;;;;;;;;;;7386190;19;20205;-75
2022/03/02 13:13:35;;;;;;;17.37;15.17;;;;;;;;;;7386807;19;20141;-75
2022/03/02 13:16:13;;;;;;;17.77;14.73;;;;;;;;;;7386123;19;20136;-75
2022/03/02 13:18:39;;;;;;;15.70;14.10;;;;;;;;;;7381506;19;20622;-74
2022/03/02 13:21:05;;;;;;;16.70;14.67;;;;;;;;;;7379204;19;20145;-75
2022/03/02 13:23:31;;;;;;;19.90;15.97;;;;;;;;;;7377986;19;20117;-75
2022/03/02 13:26:01;;;;;;;19.03;15.93;;;;;;;;;;7377267;19;20136;-74
2022/03/02 13:28:31;;;;;;;21.27;16.87;;;;;;;;;;7380126;19;20165;-74
2022/03/02 13:31:06;;;;;;;20.00;15.57;;;;;;;;;;7382484;19;20173;-75
2022/03/02 13:33:55;;;;;;;17.37;14.47;;;;;;;;;;7386716;19;20121;-75
2022/03/02 13:36:36;;;;;;;16.13;14.40;;;;;;;;;;7378751;19;20148;-75
2022/03/02 13:39:09;;;;;;;19.42;15.48;;;;;;;;;;7383170;19;20164;-74
2022/03/02 13:41:41;;;;;;;19.92;15.75;;;;;;;;;;7374862;19;20144;-74
2022/03/02 13:44:27;;;;;;;18.88;15.82;;;;;;;;;;7390398;19;20163;-74
2022/03/02 13:47:12;;;;;;;17.05;15.20;;;;;;;;;;7405009;19;20141;-74
2022/03/02 13:52:28;;;;;;;17.77;15.40;;;;;;;;;;7387994;19;20101;-74
2022/03/02 13:54:55;;;;;;;18.07;14.90;;;;;;;;;;7384487;19;20133;-74
2022/03/02 13:57:22;;;;;;;19.27;16.07;;;;;;;;;;7385476;19;20113;-74
2022/03/02 13:59:49;;;;;;;20.37;16.03;;;;;;;;;;7384288;19;20144;-73
2022/03/02 14:02:15;;;;;;;17.67;15.80;;;;;;;;;;7376731;19;20152;-75
2022/03/02 14:04:48;;;;;;;18.13;16.17;;;;;;;;;;7380035;19;20133;-74
2022/03/02 14:07:14;;;;;;;20.07;16.50;;;;;;;;;;7382652;19;20169;-75
2022/03/02 14:09:41;;;;;;;19.10;15.60;;;;;;;;;;7379385;19;20133;-74
2022/03/02 14:12:07;;;;;;;18.83;15.67;;;;;;;;;;7380512;19;20125;-77
2022/03/02 14:14:34;;;;;;;19.23;15.63;;;;;;;;;;7377332;19;20170;-77
2022/03/02 14:17:00;;;;;;;20.70;15.50;;;;;;;;;;7382653;19;20129;-76
2022/03/02 14:19:27;;;;;;;20.90;15.47;;;;;;;;;;7378449;19;20133;-77
2022/03/02 14:21:54;;;;;;;18.33;15.63;;;;;;;;;;7383259;19;20153;-77